You are listening to:
KSGJ ATIS - St Augustine, Florida, United States

KSGJ 051556Z 04004KT 10SM CLR 19/16 A3022 RMK AO2 SLP233 T01940156

If stream doesn't start automatically press the play button
If stream stops then reload player then press play